Messwerte Augusta

Temperatur

Temperatur
°C
1670076000 9.00 9.00 13
1670079600 10.00 10.00 16
1670083200 11.00 11.00 21
1670086800 12.00 12.00 21
1670090400 13.00 13.00 21
1670094000 14.00 14.00 21
1670097600 15.00 15.00 17
1670101200 16.00 16.00 18
1670104800 17.00 17.00 17
1670108400 18.00 18.00 17
1670112000 19.00 19.00 17
1670115600 20.00 20.00
1670119200 21.00 21.00 16
1670122800 22.00 22.00 16
1670126400 23.00 23.00 16
1670130000 0.00 0.00 15
1670133600 1.00 1.00 14
1670137200 2.00 2.00 14
1670140800 3.00 3.00 14
1670144400 4.00 4.00 13
1670148000 5.00 5.00
1670151600 6.00 6.00 12
1670155200 7.00 7.00 12
1670158800 8.00 8.00 12

Aktuellste Messwerte

Temperatur
13 °C
Feuchtigkeit
94 %
Wind
5 km/hWindrichtung: Nordost
Luftdruck
1025 hPa
Messzeit: 4. Dezember 2022, 9.00Datenquelle: METAR

Weitere Messstationen in der Nähe

Messstation Temperatur Entfernung
Augusta 13 °C 13 km
Atlanta 8 °C 44 km
Thomson 11 °C 45 km
Greenwood 10 °C 87 km
Sylvania 15 °C 100 km
Columbia 13 °C 100 km
Greensboro 9.0 °C 103 km

Wind

Windrichtung Böen Mittelwind
° km/h km/h
1670076000 9.00 8.00 - 9.00 160° 15
1670079600 10.00 9.00 - 10.00 5
1670083200 11.00 10.00 - 11.00 190° 10
1670086800 12.00 11.00 - 12.00 220° 25 15
1670090400 13.00 12.00 - 13.00 210° 15
1670094000 14.00 13.00 - 14.00 5
1670097600 15.00 14.00 - 15.00 320° 10
1670101200 16.00 15.00 - 16.00 0
1670104800 17.00 16.00 - 17.00 220° 5
1670108400 18.00 17.00 - 18.00 0
1670112000 19.00 18.00 - 19.00 290° 10
1670115600 20.00 19.00 - 20.00
1670119200 21.00 20.00 - 21.00 0
1670122800 22.00 21.00 - 22.00 0
1670126400 23.00 22.00 - 23.00 310° 5
1670130000 0.00 23.00 - 0.00 330° 5
1670133600 1.00 0.00 - 1.00 330° 5
1670137200 2.00 1.00 - 2.00 350° 10
1670140800 3.00 2.00 - 3.00 340° 15
1670144400 4.00 3.00 - 4.00 350° 15
1670148000 5.00 4.00 - 5.00
1670151600 6.00 5.00 - 6.00 320° 10
1670155200 7.00 6.00 - 7.00 350° 10
1670158800 8.00 7.00 - 8.00 0

Ihre Wetterstation

Fehlt Ihre Wetterstation auf unserem Portal?

Schreiben Sie an network@meteonews.ch

Klima

Wann ist es am wärmsten? Wann regnet es am wenigsten? Unsere Klimadaten geben Auskunft.